Sundown, Texas
Current Conditions -  °F | °C
As of 5:53 PM on Monday 22 Dec 2014 (Local Time) from KLBB Reporting Station
Broken Clouds Broken Clouds  
Wind Chill: 45°   Ceiling: 11000
Heat Index: 49°   Visibility: 10mi
Dew Point: 27°   Wind: 8mph
Humidity: 43%   Direction: 50°NE
Pressure: 29.66"   Gusts: NA
Location:  33.46°N, 102.49°W
Report Text: KLBB 222353Z 05007KT 10SM FEW060 BKN110 BKN270 BKN300 09/M03 A2966 RMK AO2 SLP027 VIRGA DSNT NE AND NW T00941028 10150 20094 58005
Loading
Personal Weather Stations






























Interactive Weather Map New forecast layout! Learn more

10-Day Weather Forecast

Advertisements
Track Severe Weather on mobile